createdAt,value
2017-04-16T00:00:16.081Z,61.96
2017-04-16T00:01:25.301Z,62.43
2017-04-16T00:02:35.414Z,62.34
2017-04-16T00:03:45.781Z,61.96
2017-04-16T00:04:55.925Z,62.24
2017-04-16T00:06:05.956Z,62.24
2017-04-16T00:07:15.392Z,62.91
2017-04-16T00:08:25.142Z,63.01
2017-04-16T00:09:35.246Z,63.76
2017-04-16T00:10:44.638Z,63.57
2017-04-16T00:11:54.459Z,63.67
2017-04-16T00:13:04.635Z,63.67
2017-04-16T00:14:14.450Z,63.95
2017-04-16T00:15:24.527Z,63.76
2017-04-16T00:16:34.282Z,63.95
2017-04-16T00:17:44.369Z,64.14
2017-04-16T00:18:54.154Z,63.95
2017-04-16T00:20:04.229Z,63.67
2017-04-16T00:21:14.355Z,63.57
2017-04-16T00:22:24.483Z,63.86
2017-04-16T00:23:34.959Z,63.86
2017-04-16T00:24:44.429Z,63.57
2017-04-16T00:25:54.327Z,63.57
2017-04-16T00:27:04.055Z,63.57
2017-04-16T00:28:14.117Z,64.24
2017-04-16T00:29:23.497Z,64.05
2017-04-16T00:30:33.226Z,64.34
2017-04-16T00:31:43.290Z,64.34
2017-04-16T00:32:53.345Z,63.95
2017-04-16T00:34:03.422Z,63.76
2017-04-16T00:35:13.569Z,63.95
2017-04-16T00:36:23.653Z,64.24
2017-04-16T00:37:33.401Z,63.57
2017-04-16T00:38:43.275Z,63.48
2017-04-16T00:39:53.003Z,63.86
2017-04-16T00:41:03.102Z,64.34
2017-04-16T00:42:13.184Z,64.24
2017-04-16T00:43:23.249Z,64.34
2017-04-16T00:44:33.391Z,64.34
2017-04-16T00:45:42.885Z,64.14
2017-04-16T00:46:53.250Z,64.34
2017-04-16T00:48:03.350Z,64.43
2017-04-16T00:49:13.078Z,64.34
2017-04-16T00:50:23.168Z,64.34
2017-04-16T00:51:33.319Z,64.78
2017-04-16T00:52:43.018Z,64.78
2017-04-16T00:53:53.281Z,64.97
2017-04-16T00:55:03.091Z,64.59
2017-04-16T00:56:13.156Z,65.06
2017-04-16T00:57:23.335Z,64.97
2017-04-16T00:58:33.758Z,65.44
2017-04-16T00:59:43.158Z,65.54
2017-04-16T01:00:53.276Z,65.54
2017-04-16T01:02:03.466Z,65.44
2017-04-16T01:03:13.219Z,65.06
2017-04-16T01:04:23.252Z,64.78
2017-04-16T01:05:33.093Z,65.16
2017-04-16T01:06:43.181Z,65.25
2017-04-16T01:07:52.967Z,64.97
2017-04-16T01:09:03.052Z,64.97
2017-04-16T01:10:13.115Z,65.25
2017-04-16T01:11:22.893Z,65.44
2017-04-16T01:12:32.660Z,65.44
2017-04-16T01:13:42.751Z,65.73
2017-04-16T01:14:52.893Z,65.92
2017-04-16T01:16:03.246Z,65.73
2017-04-16T01:17:13.332Z,66.11
2017-04-16T01:18:23.519Z,66.01
2017-04-16T01:19:33.259Z,66.39
2017-04-16T01:20:43.110Z,66.01
2017-04-16T01:21:53.547Z,65.92
2017-04-16T01:23:03.643Z,66.11
2017-04-16T01:24:13.712Z,65.92
2017-04-16T01:25:23.920Z,65.92
2017-04-16T01:26:34.031Z,66.01
2017-04-16T01:27:44.406Z,66.11
2017-04-16T01:28:54.489Z,65.92
2017-04-16T01:30:04.472Z,65.92
2017-04-16T01:31:14.196Z,66.39
2017-04-16T01:32:24.287Z,65.82
2017-04-16T01:33:34.766Z,65.92
2017-04-16T01:34:44.170Z,66.49
2017-04-16T01:35:54.258Z,66.39
2017-04-16T01:37:03.669Z,66.11
2017-04-16T01:38:13.733Z,66.01
2017-04-16T01:39:23.803Z,66.49
2017-04-16T01:40:33.647Z,66.49
2017-04-16T01:41:43.442Z,66.3
2017-04-16T01:42:53.527Z,66.58
2017-04-16T01:44:03.592Z,66.39
2017-04-16T01:45:13.742Z,66.67
2017-04-16T01:46:23.516Z,67.06
2017-04-16T01:47:33.380Z,67.06
2017-04-16T01:48:43.473Z,67.34
2017-04-16T01:49:53.539Z,67.15
2017-04-16T01:51:03.640Z,67.34
2017-04-16T01:52:13.856Z,66.77
2017-04-16T01:53:24.018Z,67.25
2017-04-16T01:54:33.799Z,67.53
2017-04-16T01:55:43.584Z,67.44
2017-04-16T01:56:53.641Z,67.15
2017-04-16T01:58:03.750Z,67.53
2017-04-16T01:59:13.904Z,67.34
2017-04-16T02:00:23.978Z,67.72
2017-04-16T02:01:34.060Z,67.53
2017-04-16T02:02:44.646Z,67.82
2017-04-16T02:03:54.716Z,67.63
2017-04-16T02:05:04.789Z,67.63
2017-04-16T02:06:14.845Z,67.53
2017-04-16T02:07:24.577Z,67.63
2017-04-16T02:08:34.989Z,67.82
2017-04-16T02:09:44.724Z,67.63
2017-04-16T02:10:54.847Z,67.91
2017-04-16T02:12:04.637Z,67.72
2017-04-16T02:13:14.390Z,67.91
2017-04-16T02:14:24.158Z,67.82
2017-04-16T02:15:34.373Z,68.1
2017-04-16T02:16:44.610Z,67.82
2017-04-16T02:17:54.698Z,67.91
2017-04-16T02:19:04.861Z,67.53
2017-04-16T02:20:15.211Z,68.01
2017-04-16T02:21:25.089Z,67.63
2017-04-16T02:22:34.955Z,67.72
2017-04-16T02:23:45.031Z,67.53
2017-04-16T02:24:55.146Z,68.1
2017-04-16T02:26:04.922Z,68.29
2017-04-16T02:27:15.045Z,68.29
2017-04-16T02:28:24.791Z,68.19
2017-04-16T02:29:34.544Z,68.29
2017-04-16T02:30:44.604Z,68.39
2017-04-16T02:31:55.018Z,68.29
2017-04-16T02:33:04.419Z,68.1
2017-04-16T02:34:14.232Z,68.19
2017-04-16T02:35:23.964Z,68.29
2017-04-16T02:36:33.793Z,68.1
2017-04-16T02:37:44.262Z,68.19
2017-04-16T02:38:54.375Z,68.39
2017-04-16T02:40:04.459Z,68.29
2017-04-16T02:41:14.288Z,68.77
2017-04-16T02:42:24.021Z,68.58
2017-04-16T02:43:33.908Z,68.58
2017-04-16T02:44:44.071Z,68.19
2017-04-16T02:45:54.160Z,68.1
2017-04-16T02:47:04.229Z,68.48
2017-04-16T02:48:14.296Z,68.39
2017-04-16T02:49:24.334Z,68.1
2017-04-16T02:50:34.676Z,68.19
2017-04-16T02:51:44.078Z,68.29
2017-04-16T02:52:54.144Z,68.29
2017-04-16T02:54:03.879Z,68.39
2017-04-16T02:55:14.287Z,68.1
2017-04-16T02:56:24.037Z,67.72
2017-04-16T02:57:34.117Z,67.72
2017-04-16T02:58:44.285Z,67.66
2017-04-16T02:59:54.353Z,67.53
2017-04-16T03:01:04.767Z,67.63
2017-04-16T03:02:14.551Z,67.82
2017-04-16T03:03:24.676Z,68.1
2017-04-16T03:04:35.018Z,68.01
2017-04-16T03:05:44.769Z,68.1
2017-04-16T03:06:55.349Z,68.29
2017-04-16T03:08:05.083Z,68.01
2017-04-16T03:09:14.882Z,68.39
2017-04-16T03:10:25.007Z,68.48
2017-04-16T03:11:35.134Z,68.1
2017-04-16T03:12:45.556Z,68.19
2017-04-16T03:13:55.697Z,68.19
2017-04-16T03:15:05.499Z,68.77
2017-04-16T03:16:15.700Z,68.86
2017-04-16T03:17:25.442Z,68.58
2017-04-16T03:18:35.821Z,68.58
2017-04-16T03:19:45.551Z,68.96
2017-04-16T03:20:55.380Z,68.58
2017-04-16T03:22:05.440Z,68.58
2017-04-16T03:23:15.227Z,68.77
2017-04-16T03:24:24.934Z,69.05
2017-04-16T03:25:35.001Z,68.86
2017-04-16T03:26:44.892Z,68.96
2017-04-16T03:27:55.008Z,69.34
2017-04-16T03:29:05.077Z,69.43
2017-04-16T03:30:14.448Z,69.05
2017-04-16T03:31:24.523Z,69.05
2017-04-16T03:32:34.576Z,69.05
2017-04-16T03:33:44.671Z,68.96
2017-04-16T03:34:54.440Z,69.24
2017-04-16T03:36:04.897Z,69.15
2017-04-16T03:37:15.006Z,68.96
2017-04-16T03:38:24.756Z,69.05
2017-04-16T03:39:35.025Z,69.71
2017-04-16T03:40:45.242Z,69.62
2017-04-16T03:41:55.603Z,69.43
2017-04-16T03:43:05.677Z,69.71
2017-04-16T03:44:15.465Z,69.62
2017-04-16T03:45:25.293Z,69.24
2017-04-16T03:46:35.356Z,69.24
2017-04-16T03:47:45.821Z,69.53
2017-04-16T03:48:55.217Z,69.05
2017-04-16T03:50:04.618Z,69.24
2017-04-16T03:51:14.745Z,69.05
2017-04-16T03:52:24.612Z,69.15
2017-04-16T03:53:34.660Z,69.34
2017-04-16T03:54:44.463Z,68.96
2017-04-16T03:55:54.641Z,69.05
2017-04-16T03:57:04.750Z,68.96
2017-04-16T03:58:14.862Z,68.77
2017-04-16T03:59:25.244Z,68.58
2017-04-16T04:00:35.320Z,68.77
2017-04-16T04:01:45.388Z,68.67
2017-04-16T04:02:55.548Z,68.19
2017-04-16T04:04:05.393Z,68.1
2017-04-16T04:05:15.774Z,68.13
2017-04-16T04:06:25.506Z,68.42
2017-04-16T04:07:35.237Z,68.13
2017-04-16T04:08:45.179Z,68.13
2017-04-16T04:09:55.249Z,68.1
2017-04-16T04:11:05.635Z,68.23
2017-04-16T04:12:15.147Z,68.13
2017-04-16T04:13:25.227Z,68.04
2017-04-16T04:14:35.418Z,68.23
2017-04-16T04:15:45.257Z,68.1
2017-04-16T04:16:55.766Z,68.23
2017-04-16T04:18:05.916Z,67.94
2017-04-16T04:19:15.656Z,67.76
2017-04-16T04:20:25.733Z,67.85
2017-04-16T04:21:35.125Z,67.57
2017-04-16T04:22:44.857Z,67.85
2017-04-16T04:23:54.972Z,68.04
2017-04-16T04:25:05.120Z,67.76
2017-04-16T04:26:15.214Z,67.94
2017-04-16T04:27:24.988Z,67.76
2017-04-16T04:28:35.025Z,68.04
2017-04-16T04:29:44.849Z,67.85
2017-04-16T04:30:54.989Z,67.66
2017-04-16T04:32:04.460Z,67.66
2017-04-16T04:33:14.585Z,67.57
2017-04-16T04:34:24.949Z,67.66
2017-04-16T04:35:34.788Z,67.57
2017-04-16T04:36:44.229Z,68.13
2017-04-16T04:37:53.977Z,67.47
2017-04-16T04:39:03.733Z,67.94
2017-04-16T04:40:13.441Z,67.94
2017-04-16T04:41:23.670Z,67.38
2017-04-16T04:42:33.773Z,67.47
2017-04-16T04:43:43.539Z,68.04
2017-04-16T04:44:53.605Z,67.85
2017-04-16T04:46:04.015Z,67.38
2017-04-16T04:47:13.762Z,67.85
2017-04-16T04:48:23.828Z,67.19
2017-04-16T04:49:33.244Z,68.04
2017-04-16T04:50:42.728Z,67.94
2017-04-16T04:51:53.175Z,68.04
2017-04-16T04:53:03.024Z,67.85
2017-04-16T04:54:13.084Z,67.85
2017-04-16T04:55:22.820Z,67.66
2017-04-16T04:56:32.556Z,67.66
2017-04-16T04:57:42.679Z,67.76
2017-04-16T04:58:52.740Z,67.76
2017-04-16T05:00:02.141Z,67.76
2017-04-16T05:01:11.884Z,67.47
2017-04-16T05:02:21.970Z,67.38
2017-04-16T05:03:32.051Z,67.47
2017-04-16T05:04:41.839Z,67.94
2017-04-16T05:05:51.238Z,67.85
2017-04-16T05:07:01.302Z,67.85
2017-04-16T05:08:11.044Z,67.94
2017-04-16T05:09:21.402Z,67.47
2017-04-16T05:10:31.467Z,67.57
2017-04-16T05:11:41.187Z,68.04
2017-04-16T05:12:50.930Z,67.66
2017-04-16T05:14:01.010Z,67.85
2017-04-16T05:15:11.043Z,67.76
2017-04-16T05:16:21.217Z,68.13
2017-04-16T05:17:31.330Z,68.13
2017-04-16T05:18:41.481Z,68.13
2017-04-16T05:19:51.217Z,68.13
2017-04-16T05:21:01.274Z,68.42
2017-04-16T05:22:10.689Z,68.13
2017-04-16T05:23:20.458Z,68.33
2017-04-16T05:24:30.619Z,68.23
2017-04-16T05:25:40.717Z,68.33
2017-04-16T05:26:51.072Z,68.13
2017-04-16T05:28:00.853Z,68.04
2017-04-16T05:29:10.246Z,67.94
2017-04-16T05:30:20.023Z,67.76
2017-04-16T05:31:29.870Z,67.85
2017-04-16T05:32:40.274Z,67.69
2017-04-16T05:33:49.693Z,67.28
2017-04-16T05:34:59.455Z,67.41
2017-04-16T05:36:09.522Z,67.22
2017-04-16T05:37:19.583Z,66.84
2017-04-16T05:38:29.290Z,66.71
2017-04-16T05:39:39.134Z,67
2017-04-16T05:40:49.484Z,67.09
2017-04-16T05:41:59.221Z,67.09
2017-04-16T05:43:08.997Z,67
2017-04-16T05:44:19.389Z,67
2017-04-16T05:45:29.468Z,66.94
2017-04-16T05:46:39.000Z,67.03
2017-04-16T05:47:48.829Z,66.94
2017-04-16T05:48:59.011Z,66.94
2017-04-16T05:50:09.523Z,66.94
2017-04-16T05:51:18.586Z,66.74
2017-04-16T05:52:28.787Z,66.46
2017-04-16T05:53:38.905Z,66.36
2017-04-16T05:54:49.056Z,66.65
2017-04-16T05:55:59.428Z,66.46
2017-04-16T05:57:09.502Z,66.55
2017-04-16T05:58:19.297Z,66.46
2017-04-16T05:59:29.365Z,66.46
2017-04-16T06:00:39.428Z,66.46
2017-04-16T06:01:49.786Z,66.46
2017-04-16T06:03:00.098Z,66.36
2017-04-16T06:04:10.285Z,66.27
2017-04-16T06:05:20.395Z,66.27
2017-04-16T06:06:30.253Z,66.27
2017-04-16T06:07:40.677Z,66.36
2017-04-16T06:08:50.744Z,66.17
2017-04-16T06:10:00.821Z,66.08
2017-04-16T06:11:10.917Z,65.89
2017-04-16T06:12:20.652Z,66.46
2017-04-16T06:13:30.692Z,66.36
2017-04-16T06:14:40.425Z,66.46
2017-04-16T06:15:50.514Z,65.99
2017-04-16T06:17:00.322Z,66.08
2017-04-16T06:18:09.724Z,66.17
2017-04-16T06:19:20.118Z,65.89
2017-04-16T06:20:30.265Z,65.99
2017-04-16T06:21:40.580Z,65.7
2017-04-16T06:22:50.363Z,65.89
2017-04-16T06:24:00.117Z,65.99
2017-04-16T06:25:10.527Z,65.51
2017-04-16T06:26:20.600Z,65.64
2017-04-16T06:27:30.011Z,65.35
2017-04-16T06:28:39.801Z,65.06
2017-04-16T06:29:49.580Z,65.06
2017-04-16T06:30:59.970Z,64.69
2017-04-16T06:32:09.717Z,64.78
2017-04-16T06:33:19.228Z,64.4
2017-04-16T06:34:29.371Z,64.31
2017-04-16T06:35:39.492Z,64.21
2017-04-16T06:36:50.008Z,63.73
2017-04-16T06:37:59.751Z,64.11
2017-04-16T06:39:09.869Z,64.11
2017-04-16T06:40:19.949Z,64.21
2017-04-16T06:41:30.037Z,63.73
2017-04-16T06:42:40.075Z,63.35
2017-04-16T06:43:50.202Z,62.88
2017-04-16T06:45:00.057Z,63.54
2017-04-16T06:46:09.458Z,62.97
2017-04-16T06:47:19.648Z,62.78
2017-04-16T06:48:29.826Z,62.78
2017-04-16T06:49:40.034Z,62.78
2017-04-16T06:50:50.119Z,62.88
2017-04-16T06:52:00.384Z,62.49
2017-04-16T06:53:10.460Z,62.21
2017-04-16T06:54:20.178Z,62.3
2017-04-16T06:55:30.244Z,62.49
2017-04-16T06:56:40.362Z,62.24
2017-04-16T06:57:49.780Z,62.24
2017-04-16T06:58:59.900Z,62.05
2017-04-16T07:00:10.109Z,62.05
2017-04-16T07:01:19.869Z,62.15
2017-04-16T07:02:30.040Z,61.96
2017-04-16T07:03:40.116Z,61.77
2017-04-16T07:04:49.863Z,61.86
2017-04-16T07:06:00.042Z,61.67
2017-04-16T07:07:10.232Z,60.82
2017-04-16T07:08:19.982Z,61
2017-04-16T07:09:30.357Z,60.63
2017-04-16T07:10:40.461Z,60.72
2017-04-16T07:11:50.861Z,59.86
2017-04-16T07:13:00.945Z,60.05
2017-04-16T07:14:11.037Z,60.24
2017-04-16T07:15:21.153Z,60.44
2017-04-16T07:16:31.241Z,60.63
2017-04-16T07:17:41.654Z,60.15
2017-04-16T07:18:51.751Z,59.86
2017-04-16T07:20:01.484Z,59.86
2017-04-16T07:21:11.658Z,59.96
2017-04-16T07:22:21.758Z,60.34
2017-04-16T07:23:32.226Z,60.63
2017-04-16T07:24:41.978Z,60.53
2017-04-16T07:25:52.062Z,60.44
2017-04-16T07:27:01.869Z,60.88
2017-04-16T07:28:11.603Z,60.63
2017-04-16T07:29:21.713Z,60.78
2017-04-16T07:30:31.811Z,61.38
2017-04-16T07:31:41.577Z,61.19
2017-04-16T07:32:51.840Z,61.58
2017-04-16T07:34:01.294Z,61.45
2017-04-16T07:35:11.344Z,61.48
2017-04-16T07:36:21.461Z,61.19
2017-04-16T07:37:31.555Z,61.35
2017-04-16T07:38:40.742Z,61.26
2017-04-16T07:39:50.857Z,61.83
2017-04-16T07:41:01.290Z,61.93
2017-04-16T07:42:11.021Z,62.02
2017-04-16T07:43:20.762Z,62.12
2017-04-16T07:44:31.046Z,62.02
2017-04-16T07:45:41.270Z,62.21
2017-04-16T07:46:51.658Z,61.83
2017-04-16T07:48:01.777Z,61.07
2017-04-16T07:49:11.947Z,60.31
2017-04-16T07:50:22.112Z,60.69
2017-04-16T07:51:32.180Z,60.02
2017-04-16T07:52:42.547Z,60.21
2017-04-16T07:53:52.286Z,60.41
2017-04-16T07:55:02.037Z,59.55
2017-04-16T07:56:12.138Z,59.07
2017-04-16T07:57:22.207Z,59.45
2017-04-16T07:58:32.611Z,59.55
2017-04-16T07:59:42.726Z,59.74
2017-04-16T08:00:52.478Z,59.83
2017-04-16T08:02:02.550Z,60.31
2017-04-16T08:03:12.357Z,60.21
2017-04-16T08:04:22.791Z,60.31
2017-04-16T08:05:33.080Z,60.5
2017-04-16T08:06:43.237Z,60.69
2017-04-16T08:07:53.317Z,60.6
2017-04-16T08:09:03.114Z,60.24
2017-04-16T08:10:13.511Z,60.15
2017-04-16T08:11:22.945Z,60.24
2017-04-16T08:12:32.710Z,59.67
2017-04-16T08:13:42.946Z,59.58
2017-04-16T08:14:53.077Z,59.1
2017-04-16T08:16:03.298Z,59.01
2017-04-16T08:17:13.568Z,59.1
2017-04-16T08:18:23.339Z,59.1
2017-04-16T08:19:33.096Z,59.29
2017-04-16T08:20:43.285Z,58.62
2017-04-16T08:21:53.672Z,58.62
2017-04-16T08:23:03.480Z,58.72
2017-04-16T08:24:13.570Z,59.1
2017-04-16T08:25:23.823Z,58.62
2017-04-16T08:26:33.980Z,58.81
2017-04-16T08:27:44.435Z,58.53
2017-04-16T08:28:54.232Z,58.15
2017-04-16T08:30:03.982Z,57.77
2017-04-16T08:31:14.104Z,57.58
2017-04-16T08:32:24.238Z,57.87
2017-04-16T08:33:34.297Z,57.48
2017-04-16T08:34:44.378Z,57.87
2017-04-16T08:35:54.529Z,57.2
2017-04-16T08:37:04.371Z,57.48
2017-04-16T08:38:14.499Z,57.29
2017-04-16T08:39:24.881Z,57.67
2017-04-16T08:40:34.629Z,57.48
2017-04-16T08:41:44.456Z,57.77
2017-04-16T08:42:54.199Z,57.96
2017-04-16T08:44:04.297Z,57.87
2017-04-16T08:45:14.758Z,58.15
2017-04-16T08:46:24.972Z,58.25
2017-04-16T08:47:35.076Z,57.87
2017-04-16T08:48:44.964Z,56.94
2017-04-16T08:49:55.095Z,56.85
2017-04-16T08:51:05.851Z,57.23
2017-04-16T08:52:16.658Z,56.65
2017-04-16T08:53:28.366Z,55.73
2017-04-16T08:54:39.135Z,54.88
2017-04-16T08:55:49.917Z,54.97
2017-04-16T08:57:00.972Z,54.11
2017-04-16T08:58:11.380Z,54.68
2017-04-16T08:59:21.980Z,54.21
2017-04-16T09:00:32.828Z,54.02
2017-04-16T09:01:43.628Z,54.21
2017-04-16T09:02:54.298Z,54.02
2017-04-16T09:04:04.338Z,54.02
2017-04-16T09:05:15.199Z,53.83
2017-04-16T09:06:26.141Z,54.02
2017-04-16T09:07:36.913Z,54.21
2017-04-16T09:08:47.341Z,53.92
2017-04-16T09:09:57.537Z,54.11
2017-04-16T09:11:07.711Z,54.68
2017-04-16T09:12:17.813Z,54.59
2017-04-16T09:13:28.048Z,54.97
2017-04-16T09:14:38.506Z,55.54
2017-04-16T09:15:48.351Z,54.97
2017-04-16T09:16:58.445Z,55.26
2017-04-16T09:18:08.217Z,55.73
2017-04-16T09:19:18.007Z,55.35
2017-04-16T09:20:28.901Z,55.07
2017-04-16T09:21:39.644Z,54.43
2017-04-16T09:22:50.414Z,54.17
2017-04-16T09:24:00.785Z,53.59
2017-04-16T09:25:12.535Z,53.31
2017-04-16T09:26:23.218Z,53.31
2017-04-16T09:27:34.067Z,53.21
2017-04-16T09:28:44.822Z,51.9
2017-04-16T09:29:54.569Z,50.67
2017-04-16T09:31:04.619Z,49.52
2017-04-16T09:32:15.293Z,48.57
2017-04-16T09:33:26.069Z,46.32
2017-04-16T09:34:36.860Z,43.69
2017-04-16T09:35:47.598Z,41.72
2017-04-16T09:36:58.259Z,41.34
2017-04-16T09:38:09.312Z,40.5
2017-04-16T09:39:20.083Z,40.12
2017-04-16T09:40:30.560Z,39.23
2017-04-16T09:41:41.318Z,39.52
2017-04-16T09:42:51.695Z,40.67
2017-04-16T09:44:02.714Z,39.92
2017-04-16T09:45:13.543Z,38.87
2017-04-16T09:46:24.300Z,39.33
2017-04-16T09:47:35.114Z,40.26
2017-04-16T09:48:46.144Z,40.53
2017-04-16T09:49:57.144Z,41.09
2017-04-16T09:51:07.509Z,42.6
2017-04-16T09:52:18.026Z,43.43
2017-04-16T09:53:28.758Z,44.1
2017-04-16T09:54:39.972Z,44.56
2017-04-16T09:55:50.674Z,45.13
2017-04-16T09:57:01.563Z,45.2
2017-04-16T09:58:11.986Z,45.39
2017-04-16T09:59:22.733Z,45.22
2017-04-16T10:00:33.367Z,45.25
2017-04-16T10:01:44.031Z,44.96
2017-04-16T10:02:54.187Z,44.96
2017-04-16T10:04:04.575Z,44.94
2017-04-16T10:05:14.979Z,45.7
2017-04-16T10:06:25.379Z,45.61
2017-04-16T10:07:36.050Z,45.7
2017-04-16T10:08:46.616Z,45.89
2017-04-16T10:09:57.383Z,44.94
2017-04-16T10:11:08.210Z,44.2
2017-04-16T10:12:18.968Z,44.02
2017-04-16T10:13:29.860Z,44.02
2017-04-16T10:14:40.694Z,43.07
2017-04-16T10:15:51.460Z,42.69
2017-04-16T10:17:02.301Z,41.95
2017-04-16T10:18:13.017Z,41.66
2017-04-16T10:19:23.372Z,41.49
2017-04-16T10:20:34.138Z,40.63
2017-04-16T10:21:44.842Z,39.03
2017-04-16T10:22:55.236Z,38.64
2017-04-16T10:24:05.773Z,36.77
2017-04-16T10:25:16.849Z,35.73
2017-04-16T10:26:27.609Z,34.79
2017-04-16T10:27:38.604Z,33.27
2017-04-16T10:28:49.408Z,31.08
2017-04-16T10:30:00.184Z,29.27
2017-04-16T10:31:11.208Z,28.42
2017-04-16T10:32:21.937Z,27.84
2017-04-16T10:33:32.424Z,28.81
2017-04-16T10:34:42.845Z,28.23
2017-04-16T10:35:53.274Z,27.84
2017-04-16T10:37:05.312Z,28.79
2017-04-16T10:38:16.087Z,28.97
2017-04-16T10:39:26.256Z,29.91
2017-04-16T10:40:37.001Z,31.15
2017-04-16T10:41:47.111Z,31.42
2017-04-16T10:42:58.232Z,31.8
2017-04-16T10:44:08.615Z,32.07
2017-04-16T10:45:19.432Z,33.2
2017-04-16T10:46:30.279Z,33.97
2017-04-16T10:47:40.671Z,34.63
2017-04-16T10:48:51.618Z,35.86
2017-04-16T10:50:02.006Z,36.43
2017-04-16T10:51:12.764Z,36.9
2017-04-16T10:52:23.576Z,37.93
2017-04-16T10:53:34.320Z,38.89
2017-04-16T10:54:45.393Z,40.69
2017-04-16T10:55:55.840Z,41.93
2017-04-16T10:57:06.636Z,42.69
2017-04-16T10:58:16.684Z,42.67
2017-04-16T10:59:27.456Z,44.1
2017-04-16T11:00:38.604Z,45.92
2017-04-16T11:01:49.378Z,48.08
2017-04-16T11:03:00.228Z,48.85
2017-04-16T11:04:10.970Z,51.33
2017-04-16T11:05:21.688Z,52.12
2017-04-16T11:06:32.385Z,52.69
2017-04-16T11:07:43.098Z,52.12
2017-04-16T11:08:53.951Z,51.93
2017-04-16T11:10:04.341Z,52.59
2017-04-16T11:11:15.505Z,53.27
2017-04-16T11:12:25.561Z,54.13
2017-04-16T11:13:36.309Z,53.05
2017-04-16T11:14:47.113Z,52.98
2017-04-16T11:15:58.791Z,52.31
2017-04-16T11:17:09.517Z,51.76
2017-04-16T11:18:20.603Z,49.98
2017-04-16T11:19:31.206Z,48.66
2017-04-16T11:20:41.965Z,47.63
2017-04-16T11:21:52.682Z,42.77
2017-04-16T11:23:03.112Z,42.6
2017-04-16T11:24:14.140Z,42.91
2017-04-16T11:25:24.613Z,42.84
2017-04-16T11:26:34.998Z,41.78
2017-04-16T11:27:45.768Z,37.97
2017-04-16T11:28:56.517Z,39.31
2017-04-16T11:30:07.204Z,37.99
2017-04-16T11:31:17.931Z,37.99
2017-04-16T11:32:27.984Z,37.82
2017-04-16T11:33:38.848Z,35.43
2017-04-16T11:34:49.574Z,35.63
2017-04-16T11:36:00.321Z,35.05
2017-04-16T11:37:11.087Z,34.09
2017-04-16T11:38:21.879Z,34.19
2017-04-16T11:39:32.527Z,35.24
2017-04-16T11:40:42.595Z,34.45
2017-04-16T11:41:53.696Z,33.98
2017-04-16T11:43:04.420Z,34.63
2017-04-16T11:44:16.212Z,34.82
2017-04-16T11:45:27.007Z,34.61
2017-04-16T11:46:37.595Z,34.61
2017-04-16T11:47:48.073Z,34.04
2017-04-16T11:48:58.884Z,34.14
2017-04-16T11:50:09.627Z,33.47
2017-04-16T11:51:20.411Z,34.88
2017-04-16T11:52:31.303Z,34.02
2017-04-16T11:53:41.997Z,34.2
2017-04-16T11:54:53.702Z,36.02
2017-04-16T11:56:05.122Z,37.05
2017-04-16T11:57:15.605Z,38.56
2017-04-16T11:58:26.426Z,39.9
2017-04-16T11:59:37.459Z,40.84
2017-04-16T12:00:47.653Z,41.61
2017-04-16T12:01:58.044Z,42.16
2017-04-16T12:03:08.762Z,42.54
2017-04-16T12:04:19.149Z,44.17
2017-04-16T12:05:30.180Z,43.88
2017-04-16T12:06:41.131Z,43.71
2017-04-16T12:07:51.548Z,42.66
2017-04-16T12:09:01.977Z,42.49
2017-04-16T12:10:12.755Z,41.65
2017-04-16T12:11:23.391Z,40.88
2017-04-16T12:12:33.834Z,40.33
2017-04-16T12:13:44.621Z,39.28
2017-04-16T12:14:55.355Z,39.45
2017-04-16T12:16:07.124Z,40.31
2017-04-16T12:17:19.202Z,39.45
2017-04-16T12:18:30.844Z,39.54
2017-04-16T12:19:41.706Z,39.47
2017-04-16T12:20:52.464Z,39.37
2017-04-16T12:22:02.983Z,37.47
2017-04-16T12:23:14.157Z,36.72
2017-04-16T12:24:24.530Z,36.24
2017-04-16T12:25:35.298Z,36.15
2017-04-16T12:26:46.077Z,34.92
2017-04-16T12:27:57.010Z,33.4
2017-04-16T12:29:09.009Z,33.01
2017-04-16T12:30:19.827Z,32.92
2017-04-16T12:31:30.162Z,34.06
2017-04-16T12:32:40.896Z,34.25
2017-04-16T12:33:51.734Z,34.34
2017-04-16T12:35:02.474Z,34.15
2017-04-16T12:36:12.999Z,33.94
2017-04-16T12:37:23.851Z,34.14
2017-04-16T12:38:34.713Z,35.08
2017-04-16T12:39:45.459Z,34.88
2017-04-16T12:40:56.500Z,34.22
2017-04-16T12:42:07.249Z,34.87
2017-04-16T12:43:17.663Z,35.25
2017-04-16T12:44:28.459Z,35.52
2017-04-16T12:45:39.228Z,36.96
2017-04-16T12:46:50.251Z,39.23
2017-04-16T12:48:01.153Z,40.48
2017-04-16T12:49:11.966Z,41.13
2017-04-16T12:50:23.639Z,41.78
2017-04-16T12:51:34.433Z,41.87
2017-04-16T12:52:45.505Z,42.73
2017-04-16T12:53:55.979Z,43.21
2017-04-16T12:55:06.369Z,43.4
2017-04-16T12:56:17.087Z,43.12
2017-04-16T12:57:27.525Z,42.73
2017-04-16T12:58:38.748Z,42.54
2017-04-16T12:59:49.494Z,42.07
2017-04-16T13:00:59.958Z,41.97
2017-04-16T13:02:10.712Z,42.54
2017-04-16T13:03:22.511Z,41.87
2017-04-16T13:04:33.617Z,41.39
2017-04-16T13:05:44.341Z,41.2
2017-04-16T13:06:54.839Z,41.49
2017-04-16T13:08:05.272Z,41.97
2017-04-16T13:09:15.880Z,42.07
2017-04-16T13:10:26.939Z,42.61
2017-04-16T13:11:37.895Z,42.61
2017-04-16T13:12:52.804Z,42.71
2017-04-16T13:14:04.893Z,42.52
2017-04-16T13:15:18.067Z,42.81
2017-04-16T13:16:35.449Z,43.38
2017-04-16T13:17:48.235Z,44.24
2017-04-16T13:18:58.728Z,44.34
2017-04-16T13:20:09.553Z,44.43
2017-04-16T13:21:19.908Z,44.34
2017-04-16T13:22:30.620Z,44.15
2017-04-16T13:23:41.412Z,43.98
2017-04-16T13:24:51.933Z,43.02
2017-04-16T13:26:02.690Z,42.07
2017-04-16T13:27:13.483Z,40.34
2017-04-16T13:28:24.454Z,39.86
2017-04-16T13:29:35.243Z,40.44
2017-04-16T13:30:45.708Z,40.82
2017-04-16T13:31:56.409Z,40.53
2017-04-16T13:33:06.788Z,40.44
2017-04-16T13:34:17.566Z,40.44
2017-04-16T13:35:27.998Z,41.3
2017-04-16T13:36:38.784Z,42.64
2017-04-16T13:37:50.464Z,42.93
2017-04-16T13:39:01.492Z,43.5
2017-04-16T13:40:12.295Z,43.98
2017-04-16T13:41:23.086Z,43.21
2017-04-16T13:42:33.600Z,43.98
2017-04-16T13:43:44.056Z,44.74
2017-04-16T13:44:55.195Z,45.41
2017-04-16T13:46:05.644Z,44.72
2017-04-16T13:47:16.410Z,46.72
2017-04-16T13:48:27.130Z,47.87
2017-04-16T13:49:37.900Z,47.49
2017-04-16T13:50:48.574Z,46.82
2017-04-16T13:51:58.954Z,47.66
2017-04-16T13:53:09.710Z,48.23
2017-04-16T13:54:20.635Z,48.71
2017-04-16T13:55:31.057Z,46.13
2017-04-16T13:56:42.099Z,46.7
2017-04-16T13:57:52.802Z,46.61
2017-04-16T13:59:04.208Z,46.99
2017-04-16T14:00:14.923Z,47.47
2017-04-16T14:01:26.650Z,47.66
2017-04-16T14:02:37.685Z,47.27
2017-04-16T14:03:48.415Z,47.47
2017-04-16T14:04:59.198Z,46.92
2017-04-16T14:06:09.612Z,47.97
2017-04-16T14:07:20.007Z,49.3
2017-04-16T14:08:31.080Z,49.47
2017-04-16T14:09:41.465Z,50.04
2017-04-16T14:10:52.803Z,50.81
2017-04-16T14:12:03.653Z,51.09
2017-04-16T14:13:14.383Z,51.67
2017-04-16T14:14:25.424Z,51.76
2017-04-16T14:15:35.803Z,52.24
2017-04-16T14:16:47.146Z,51.29
2017-04-16T14:17:57.966Z,51.86
2017-04-16T14:19:08.970Z,52.05
2017-04-16T14:20:20.298Z,51.19
2017-04-16T14:21:32.079Z,50.24
2017-04-16T14:22:43.743Z,49.95
2017-04-16T14:23:54.478Z,49.38
2017-04-16T14:25:05.239Z,49.95
2017-04-16T14:26:15.969Z,51.09
2017-04-16T14:27:26.395Z,51.19
2017-04-16T14:28:37.036Z,51.19
2017-04-16T14:29:47.189Z,51.64
2017-04-16T14:30:57.291Z,53.17
2017-04-16T14:32:07.733Z,53.91
2017-04-16T14:33:17.142Z,55.15
2017-04-16T14:34:27.234Z,55.24
2017-04-16T14:35:37.338Z,54.77
2017-04-16T14:36:46.782Z,54.77
2017-04-16T14:37:57.282Z,54.29
2017-04-16T14:39:07.466Z,54
2017-04-16T14:40:17.594Z,54.1
2017-04-16T14:41:27.077Z,53.91
2017-04-16T14:42:37.160Z,53.91
2017-04-16T14:43:46.883Z,54.67
2017-04-16T14:44:56.646Z,54.29
2017-04-16T14:46:06.077Z,54
2017-04-16T14:47:16.256Z,53.72
2017-04-16T14:48:26.114Z,54
2017-04-16T14:49:35.919Z,53.24
2017-04-16T14:50:46.017Z,52.5
2017-04-16T14:51:56.165Z,52.03
2017-04-16T14:53:38.063Z,50.21
2017-04-16T14:54:47.877Z,49.73
2017-04-16T14:55:57.656Z,49.73
2017-04-16T14:57:07.066Z,49.16
2017-04-16T14:58:16.821Z,48.68
2017-04-16T14:59:26.946Z,48.78
2017-04-16T15:00:37.347Z,49.93
2017-04-16T15:01:46.534Z,49.35
2017-04-16T15:02:56.751Z,49.16
2017-04-16T15:04:06.639Z,48.49
2017-04-16T15:05:16.824Z,49.07
2017-04-16T15:06:27.276Z,49.44
2017-04-16T15:07:36.790Z,49.8